createdAt,value
2019-05-13T09:03:27.906Z,65.93
2019-05-13T09:06:01.979Z,68.10
2019-05-13T09:08:34.840Z,68.77
2019-05-13T09:11:07.675Z,68.17
2019-05-13T09:13:42.129Z,70.29
2019-05-13T09:16:13.503Z,68.52
2019-05-13T09:18:45.050Z,68.85
2019-05-13T09:21:19.218Z,69.78
2019-05-13T09:23:51.535Z,68.16
2019-05-13T09:26:24.324Z,67.46
2019-05-13T09:29:17.881Z,69.16
2019-05-13T09:31:52.097Z,67.95
2019-05-13T09:34:23.950Z,67.59
2019-05-13T09:36:55.786Z,67.29
2019-05-13T09:39:34.074Z,68.05
2019-05-13T09:42:12.723Z,66.86
2019-05-13T09:44:43.598Z,67.54
2019-05-13T09:47:18.606Z,67.35
2019-05-13T09:49:51.285Z,67.69
2019-05-13T09:52:24.149Z,67.47
2019-05-13T09:54:56.627Z,69.08
2019-05-13T09:57:28.084Z,68.66
2019-05-13T10:00:03.642Z,70.08
2019-05-13T10:02:36.692Z,70.01
2019-05-13T10:05:13.286Z,70.05
2019-05-13T10:07:46.245Z,68.63
2019-05-13T10:10:19.565Z,68.29
2019-05-13T10:13:08.030Z,68.36
2019-05-13T10:15:25.158Z,68.52
2019-05-13T10:17:58.561Z,68.70
2019-05-13T10:21:10.971Z,68.31
2019-05-13T10:23:58.072Z,68.47
2019-05-13T10:26:26.946Z,68.59
2019-05-13T10:28:58.623Z,65.41
2019-05-13T10:31:32.002Z,65.76
2019-05-13T10:34:05.030Z,64.61
2019-05-13T10:36:36.906Z,65.08
2019-05-13T10:39:11.756Z,65.81
2019-05-13T10:41:44.573Z,64.36
2019-05-13T10:44:17.667Z,66.34
2019-05-13T10:46:51.987Z,66.11
2019-05-13T10:49:23.434Z,66.11
2019-05-13T10:51:58.361Z,65.64
2019-05-13T10:54:32.285Z,64.67
2019-05-13T10:57:04.172Z,65.57
2019-05-13T10:59:39.293Z,65.78
2019-05-13T11:02:14.974Z,66.05
2019-05-13T11:04:47.918Z,64.92
2019-05-13T11:07:22.427Z,65.96
2019-05-13T11:09:57.371Z,65.05
2019-05-13T11:12:30.473Z,65.14
2019-05-13T11:15:02.749Z,66.27
2019-05-13T11:17:34.500Z,66.75
2019-05-13T11:20:12.248Z,66.37
2019-05-13T11:22:42.991Z,66.30
2019-05-13T11:25:17.047Z,66.07
2019-05-13T11:27:52.404Z,66.05
2019-05-13T11:30:24.565Z,66.32
2019-05-13T11:32:57.738Z,65.89
2019-05-13T11:35:32.010Z,66.04
2019-05-13T11:38:06.160Z,65.21
2019-05-13T11:40:37.602Z,64.63
2019-05-13T11:43:12.130Z,65.38
2019-05-13T11:45:42.796Z,65.37
2019-05-13T11:48:15.314Z,65.33
2019-05-13T11:50:50.442Z,64.65
2019-05-13T11:53:32.756Z,64.85
2019-05-13T11:56:03.236Z,65.16
2019-05-13T11:58:34.670Z,64.80
2019-05-13T12:01:07.674Z,65.12
2019-05-13T12:03:39.155Z,65.36
2019-05-13T12:06:13.450Z,64.59
2019-05-13T12:08:52.107Z,65.01
2019-05-13T12:11:22.411Z,65.54
2019-05-13T12:13:53.439Z,65.60
2019-05-13T12:16:26.501Z,64.64
2019-05-13T12:19:03.113Z,65.27
2019-05-13T12:21:33.288Z,65.27
2019-05-13T12:24:11.046Z,65.32
2019-05-13T12:26:43.333Z,64.61
2019-05-13T12:29:18.915Z,64.51
2019-05-13T12:31:48.471Z,63.85
2019-05-13T12:34:22.816Z,63.03
2019-05-13T12:36:55.643Z,62.24
2019-05-13T12:39:26.994Z,64.16
2019-05-13T12:42:03.323Z,63.49
2019-05-13T12:44:33.764Z,62.12
2019-05-13T12:47:06.694Z,64.03
2019-05-13T12:49:38.127Z,64.60
2019-05-13T12:52:13.090Z,63.07
2019-05-13T12:54:44.108Z,65.27
2019-05-13T12:57:16.704Z,64.52
2019-05-13T12:59:49.417Z,64.74
2019-05-13T13:02:22.651Z,64.61
2019-05-13T13:05:10.735Z,64.58
2019-05-13T13:07:40.801Z,64.77
2019-05-13T13:10:07.706Z,63.84
2019-05-13T13:12:42.091Z,63.35
2019-05-13T13:15:35.877Z,63.30
2019-05-13T13:17:54.013Z,62.86
2019-05-13T13:20:24.966Z,62.25
2019-05-13T13:22:56.589Z,63.88
2019-05-13T13:25:29.379Z,62.82
2019-05-13T13:28:11.320Z,63.41
2019-05-13T13:30:43.872Z,63.84
2019-05-13T13:33:15.715Z,63.34
2019-05-13T13:35:58.842Z,63.96
2019-05-13T13:38:25.134Z,63.66
2019-05-13T13:40:58.767Z,64.12
2019-05-13T13:43:36.457Z,63.71
2019-05-13T13:46:13.629Z,65.11
2019-05-13T13:48:39.141Z,65.02
2019-05-13T13:51:14.544Z,64.70
2019-05-13T13:53:47.934Z,64.90
2019-05-13T13:56:25.401Z,64.87
2019-05-13T13:58:54.499Z,64.72
2019-05-13T14:01:28.778Z,65.61
2019-05-13T14:04:03.819Z,66.92
2019-05-13T14:09:12.913Z,66.43
2019-05-13T14:11:45.193Z,66.92
2019-05-13T14:14:16.621Z,66.00
2019-05-13T14:16:51.634Z,67.05
2019-05-13T14:19:23.348Z,65.44
2019-05-13T14:21:55.436Z,65.98
2019-05-13T14:24:28.271Z,65.84
2019-05-13T14:27:02.808Z,66.73
2019-05-13T14:29:40.637Z,67.05
2019-05-13T14:32:09.702Z,66.71
2019-05-13T14:34:42.209Z,66.87
2019-05-13T14:37:13.928Z,65.49
2019-05-13T14:39:45.755Z,65.98
2019-05-13T14:42:17.218Z,65.41
2019-05-13T14:44:48.659Z,65.48
2019-05-13T14:47:21.778Z,65.23
2019-05-13T14:49:55.056Z,65.15
2019-05-13T14:52:28.064Z,65.94
2019-05-13T14:55:02.220Z,66.33
2019-05-13T14:58:01.614Z,66.95
2019-05-13T15:00:36.650Z,66.83
2019-05-13T15:03:13.106Z,67.19
2019-05-13T15:05:46.547Z,65.71
2019-05-13T15:08:23.202Z,66.04
2019-05-13T15:10:55.702Z,66.76
2019-05-13T15:13:27.526Z,65.29
2019-05-13T15:16:01.285Z,65.51
2019-05-13T15:18:33.373Z,64.23
2019-05-13T15:21:05.282Z,64.72
2019-05-13T15:23:36.903Z,64.67
2019-05-13T15:26:08.582Z,63.90
2019-05-13T15:29:04.996Z,63.88
2019-05-13T15:31:37.049Z,63.36
2019-05-13T15:34:08.498Z,64.80
2019-05-13T15:36:41.949Z,66.73
2019-05-13T15:39:13.857Z,66.50
2019-05-13T15:41:45.932Z,66.02
2019-05-13T15:44:18.832Z,66.67
2019-05-13T15:46:53.173Z,67.37
2019-05-13T15:49:27.770Z,66.67
2019-05-13T15:52:01.727Z,67.87
2019-05-13T15:54:33.551Z,67.85
2019-05-13T15:57:05.376Z,68.03
2019-05-13T15:59:41.356Z,67.19
2019-05-13T16:02:13.467Z,69.15
2019-05-13T16:04:52.571Z,67.92
2019-05-13T16:07:20.878Z,68.99
2019-05-13T16:09:52.822Z,68.66
2019-05-13T16:12:27.187Z,67.84
2019-05-13T16:15:01.985Z,68.74
2019-05-13T16:17:41.141Z,69.90
2019-05-13T16:20:09.278Z,68.85
2019-05-13T16:22:42.016Z,69.33
2019-05-13T16:25:19.004Z,69.26
2019-05-13T16:27:51.996Z,69.16
2019-05-13T16:30:26.045Z,69.32
2019-05-13T16:32:59.056Z,69.34
2019-05-13T16:35:32.054Z,69.36
2019-05-13T16:38:06.463Z,69.45
2019-05-13T16:40:39.191Z,69.95
2019-05-13T16:43:12.892Z,69.56
2019-05-13T16:45:52.180Z,69.25
2019-05-13T16:48:26.150Z,68.77
2019-05-13T16:51:21.561Z,69.31
2019-05-13T16:53:55.921Z,68.77
2019-05-13T16:56:30.996Z,68.84
2019-05-13T16:59:02.051Z,69.58
2019-05-13T17:01:34.897Z,69.04
2019-05-13T17:04:07.109Z,68.36
2019-05-13T17:06:38.587Z,69.16
2019-05-13T17:09:12.440Z,69.00
2019-05-13T17:11:44.017Z,68.76
2019-05-13T17:14:15.519Z,69.13
2019-05-13T17:16:47.486Z,68.47
2019-05-13T17:19:19.030Z,67.79
2019-05-13T17:21:52.011Z,67.74
2019-05-13T17:24:23.817Z,67.58
2019-05-13T17:26:55.269Z,67.67
2019-05-13T17:29:27.940Z,67.58
2019-05-13T17:32:02.471Z,68.32
2019-05-13T17:34:33.937Z,68.58
2019-05-13T17:37:08.133Z,68.66
2019-05-13T17:39:41.515Z,69.19
2019-05-13T17:42:12.965Z,69.93
2019-05-13T17:44:47.206Z,68.81
2019-05-13T17:47:21.733Z,69.20
2019-05-13T17:50:14.724Z,69.40
2019-05-13T17:52:46.353Z,69.71
2019-05-13T17:55:18.290Z,69.34
2019-05-13T17:57:51.487Z,69.39
2019-05-13T18:00:23.288Z,69.47
2019-05-13T18:02:56.387Z,68.73
2019-05-13T18:05:31.466Z,68.79
2019-05-13T18:08:02.900Z,68.87
2019-05-13T18:10:34.924Z,68.89
2019-05-13T18:13:07.688Z,69.70
2019-05-13T18:15:40.624Z,69.82
2019-05-13T18:18:14.715Z,70.00
2019-05-13T18:20:46.523Z,71.19
2019-05-13T18:23:17.949Z,70.94
2019-05-13T18:25:51.456Z,71.26
2019-05-13T18:28:30.892Z,72.04
2019-05-13T18:31:01.774Z,71.24
2019-05-13T18:33:34.177Z,71.93
2019-05-13T18:36:05.629Z,71.76
2019-05-13T18:38:37.502Z,72.26
2019-05-13T18:41:09.126Z,72.20
2019-05-13T18:43:41.773Z,72.29
2019-05-13T18:46:13.602Z,72.87
2019-05-13T18:48:58.195Z,72.52
2019-05-13T18:51:21.150Z,72.04
2019-05-13T18:53:53.475Z,72.75
2019-05-13T18:56:25.558Z,73.05
2019-05-13T18:58:57.295Z,72.79
2019-05-13T19:01:31.950Z,73.21
2019-05-13T19:04:04.948Z,72.91
2019-05-13T19:06:37.214Z,72.70
2019-05-13T19:09:11.201Z,73.37
2019-05-13T19:11:43.683Z,73.59
2019-05-13T19:14:16.488Z,73.12
2019-05-13T19:16:48.645Z,73.04
2019-05-13T19:19:24.673Z,73.08
2019-05-13T19:21:58.118Z,73.16
2019-05-13T19:24:31.384Z,72.69
2019-05-13T19:27:03.425Z,72.94
2019-05-13T19:29:38.093Z,72.93
2019-05-13T19:32:12.459Z,73.57
2019-05-13T19:34:45.496Z,72.10
2019-05-13T19:37:17.124Z,71.85
2019-05-13T19:39:50.074Z,72.08
2019-05-13T19:42:22.319Z,72.18
2019-05-13T19:44:53.875Z,72.11
2019-05-13T19:47:26.431Z,72.37
2019-05-13T19:49:58.521Z,71.87
2019-05-13T19:52:32.102Z,71.63
2019-05-13T19:55:07.130Z,71.16
2019-05-13T19:57:38.855Z,71.42
2019-05-13T20:00:14.275Z,71.84
2019-05-13T20:02:48.475Z,71.99
2019-05-13T20:05:21.184Z,72.52
2019-05-13T20:07:55.666Z,72.98
2019-05-13T20:10:27.082Z,72.98
2019-05-13T20:13:01.806Z,72.92
2019-05-13T20:15:35.879Z,73.70
2019-05-13T20:18:11.960Z,73.36
2019-05-13T20:20:43.484Z,73.41
2019-05-13T20:23:36.056Z,73.46
2019-05-13T20:26:08.324Z,73.54
2019-05-13T20:28:41.958Z,73.25
2019-05-13T20:31:14.416Z,73.75
2019-05-13T20:33:47.724Z,73.89
2019-05-13T20:36:22.186Z,73.39
2019-05-13T20:38:54.442Z,73.83
2019-05-13T20:41:27.657Z,73.72
2019-05-13T20:44:02.185Z,72.53
2019-05-13T20:46:35.810Z,73.30
2019-05-13T20:49:12.014Z,73.39
2019-05-13T20:51:43.169Z,73.42
2019-05-13T20:54:15.262Z,72.73
2019-05-13T20:56:47.303Z,71.99
2019-05-13T20:59:21.345Z,71.35
2019-05-13T21:01:53.614Z,71.21
2019-05-13T21:04:26.866Z,71.83
2019-05-13T21:07:02.143Z,72.35
2019-05-13T21:09:35.723Z,72.95
2019-05-13T21:12:08.713Z,73.74
2019-05-13T21:14:42.085Z,74.10
2019-05-13T21:17:13.993Z,73.01
2019-05-13T21:19:47.556Z,73.17
2019-05-13T21:22:21.100Z,72.65
2019-05-13T21:24:53.264Z,72.32
2019-05-13T21:27:26.903Z,72.00
2019-05-13T21:30:01.228Z,72.15
2019-05-13T21:32:34.609Z,72.67
2019-05-13T21:35:07.461Z,72.47
2019-05-13T21:37:39.137Z,72.75
2019-05-13T21:40:11.940Z,73.28
2019-05-13T21:42:44.570Z,72.12
2019-05-13T21:45:16.457Z,72.30
2019-05-13T21:47:49.099Z,71.99
2019-05-13T21:50:33.119Z,72.29
2019-05-13T21:52:55.947Z,71.52
2019-05-13T21:55:29.386Z,71.36
2019-05-13T21:58:03.126Z,71.76
2019-05-13T22:00:41.679Z,72.96
2019-05-13T22:03:14.029Z,73.32
2019-05-13T22:05:45.692Z,73.98
2019-05-13T22:08:18.019Z,74.30
2019-05-13T22:13:34.035Z,74.09
2019-05-13T22:16:05.607Z,73.68
2019-05-13T22:18:38.096Z,74.06
2019-05-13T22:21:11.819Z,73.10
2019-05-13T22:23:43.546Z,73.61
2019-05-13T22:26:16.873Z,72.46
2019-05-13T22:28:48.268Z,72.60
2019-05-13T22:31:22.254Z,72.62
2019-05-13T22:33:54.246Z,72.10
2019-05-13T22:36:25.906Z,71.81
2019-05-13T22:38:57.548Z,71.52
2019-05-13T22:41:31.493Z,71.63
2019-05-13T22:44:03.226Z,71.71
2019-05-13T22:46:36.067Z,71.61
2019-05-13T22:49:08.786Z,71.57
2019-05-13T22:51:41.402Z,71.61
2019-05-13T22:54:13.426Z,72.00
2019-05-13T22:56:48.087Z,71.72
2019-05-13T22:59:21.459Z,71.33
2019-05-13T23:01:53.406Z,71.75
2019-05-13T23:04:25.885Z,71.05
2019-05-13T23:06:57.890Z,71.44
2019-05-13T23:09:32.124Z,70.96
2019-05-13T23:12:03.783Z,70.63
2019-05-13T23:14:35.196Z,70.24
2019-05-13T23:17:12.419Z,70.51
2019-05-13T23:19:44.974Z,71.09
2019-05-13T23:22:20.219Z,71.96
2019-05-13T23:25:13.254Z,71.73
2019-05-13T23:27:51.278Z,71.55
2019-05-13T23:30:22.990Z,71.82
2019-05-13T23:32:55.546Z,71.68
2019-05-13T23:35:27.513Z,71.21
2019-05-13T23:38:01.632Z,71.31
2019-05-13T23:40:34.577Z,70.96
2019-05-13T23:43:11.191Z,70.28
2019-05-13T23:45:42.688Z,70.24
2019-05-13T23:48:15.859Z,69.91
2019-05-13T23:50:52.068Z,69.94
2019-05-13T23:53:26.115Z,69.71
2019-05-13T23:55:59.132Z,69.51
2019-05-13T23:58:32.219Z,69.56
